Airfield :
LOGIN :

Register | Disclaimer

   EN    FR    IT 

 










Legend :    VFR   Marginal VFR   IFR   Intensive IFR   Very Intensive IFR
Visi :
Ceiling :
>= 8 km
>= 3000ft
5 to 8 km
1000 to 3000 ft
1500m to 5 km
500 to 1000 ft
800 to 1500m
200 to 500 ft
< 800m
< 200 ft
Symbols :   Thunderstorms  Fog  Heavy snow  Heavy precipitations  Wind > 20 kt
SIGMETs :     Misc.  Thunderstorms  Icing  Turbulence  Mountain Waves  Volcanic Ashes






- Airport Elevation : 433 ft
- IATA code : CCF


LFMK - Carcassonne

CURRENT METAR :
  • 141230Z AUTO 09013KT 060V130 9000 NSC 27/16 Q1013 TEMPO 09016G26KT

EXPIRED METARs :
  • 141200Z AUTO 08013KT CAVOK 27/16 Q1013 TEMPO 09016G26KT
  • 141130Z AUTO 08012KT 060V120 9000 NSC 26/16 Q1013 TEMPO 09016G26KT
  • 141100Z AUTO 09014KT 060V120 9000 NSC 25/15 Q1013 NOSIG
  • 141030Z AUTO 08014KT 060V120 9000 NSC 25/16 Q1014 NOSIG
  • 141000Z AUTO 09014KT 070V130 9000 NSC 24/16 Q1014 NOSIG
  • 140930Z AUTO 09013KT 070V140 CAVOK 23/16 Q1014 NOSIG
  • 140900Z AUTO 08013KT 050V130 CAVOK 23/16 Q1014 NOSIG
  • 140830Z AUTO 08012KT 060V120 CAVOK 22/15 Q1014 NOSIG
  • 140800Z AUTO 08013KT CAVOK 22/15 Q1014 NOSIG

TAF TAF LFMK
Valid from the 14 at 09:00 until the 15 at 09:00 UTC


140800Z 1409/1509 09012KT CAVOK
TEMPO 1413/1419 09016G26KT
BECMG 1419/1421 28010KT BKN025 FEW050CB
PROB40
TEMPO 1419/1421 3000 SHRA
PROB30
TEMPO 1419/1421 1500 TSRA
TEMPO 1421/1423 29020G30KT
BECMG 1422/1424 OVC020



MET'MAP, your aeronautical weather chart ! - Copyright ORBIFLY December 2007 - Disclaimer

ORBIFLY MET'MAP TEAM :

Programming & Development : Alexandra Zaïnal
Original concept : Baudouin d'Aumeries
Technical & hardware support : Manuel Goepfert
Assistance : Marc-Olivier Méhu




SOURCES & CREDITS :

   NOAA